Gas Defiance — V7PF3 — position and weather

sailwx.info

Track history (hours):
 
Tides and Currents Weather Stations Pressure Air Temp Water Temp Dewpoint Dewpoint Depression Visibility Wind Speed Wind Dir Waves Ship Positions

Gas Defiance

Last reported at 2017-Dec-10 18:57 UTC. Time now 2017-Dec-11 04:27 UTC.
Position S 27°25' E 153°08'.

Length 100 m; draft 6 m.

MMSI: 538003218.

Date/timePositionNaut miles runAvg speedWind from/ knotsBaromVisibWave heightAir tempDewpointWater temp
2017-Dec-10 18:57S 27°25' E 153°08'3 6.3
2017-Dec-10 18:30S 27°23' E 153°10'4 8.7
2017-Dec-10 18:00S 27°19' E 153°12'3 6.3
2017-Dec-10 17:30S 27°17' E 153°15'0 0.1
2017-Dec-10 17:00S 27°17' E 153°15'0 0.0
2017-Dec-10 16:30S 27°17' E 153°15'0 0.1
2017-Dec-10 16:00S 27°17' E 153°15'0 0.0
2017-Dec-10 15:30S 27°17' E 153°15'0 0.0
2017-Dec-10 15:00S 27°17' E 153°15'0 0.0
2017-Dec-10 14:30S 27°17' E 153°15'0 0.0
2017-Dec-10 14:00S 27°17' E 153°15'0 0.0
2017-Dec-10 13:30S 27°17' E 153°15'0 0.0
2017-Dec-10 13:00S 27°17' E 153°15'0 0.0
2017-Dec-10 12:30S 27°17' E 153°15'0 0.0
2017-Dec-10 12:00S 27°17' E 153°15'0 0.0
2017-Dec-10 11:30S 27°17' E 153°15'0 0.0
2017-Dec-10 11:00S 27°17' E 153°15'0 0.0
2017-Dec-10 10:30S 27°17' E 153°15'0 0.0
2017-Dec-10 10:00S 27°17' E 153°15'0 0.0
2017-Dec-10 09:30S 27°17' E 153°15'0 0.3
2017-Dec-10 09:00S 27°17' E 153°15'1 2.2
2017-Dec-10 08:29S 27°17' E 153°17'0 0.0
2017-Dec-10 07:59S 27°17' E 153°17'0 0.0
2017-Dec-10 07:29S 27°17' E 153°17'0 0.0
2017-Dec-10 06:59S 27°17' E 153°17'0 0.1
2017-Dec-10 06:29S 27°17' E 153°17'0 0.1
2017-Dec-10 05:59S 27°17' E 153°17'0 0.0
2017-Dec-10 05:29S 27°17' E 153°17'0 0.0
2017-Dec-10 04:59S 27°17' E 153°17'0 0.0
2017-Dec-10 04:29S 27°17' E 153°17'0 0.0
2017-Dec-10 03:59S 27°17' E 153°17'0 0.0
2017-Dec-10 03:26S 27°17' E 153°17'0 0.0
2017-Dec-10 02:53S 27°17' E 153°17'0 0.0
2017-Dec-10 02:29S 27°17' E 153°17'0 0.0
2017-Dec-10 01:56S 27°17' E 153°17'0 0.0
2017-Dec-10 01:29S 27°17' E 153°17'0 0.0
2017-Dec-10 00:59S 27°17' E 153°17'0 0.0
2017-Dec-10 00:29S 27°17' E 153°17'0 0.0
2017-Dec-09 23:59S 27°17' E 153°17'0 0.1
2017-Dec-09 23:26S 27°17' E 153°17'0 0.1
2017-Dec-09 22:59S 27°17' E 153°17'0 0.1
2017-Dec-09 22:29S 27°17' E 153°17'0 0.0
2017-Dec-09 21:59S 27°17' E 153°17'0 0.0
2017-Dec-09 21:29S 27°17' E 153°17'0 0.1
2017-Dec-09 21:00S 27°17' E 153°17'1 1.3
2017-Dec-09 20:30S 27°16' E 153°17'4 8.8
2017-Dec-09 20:00S 27°13' E 153°20'510.0
2017-Dec-09 19:30S 27°08' E 153°21'510.0
2017-Dec-09 19:00S 27°04' E 153°18'5 9.5
2017-Dec-09 18:30S 27°01' E 153°14'510.6
2017-Dec-09 18:00S 26°56' E 153°12'611.0
2017-Dec-09 17:30S 26°51' E 153°09'7 0.9
2017-Dec-09 09:40S 26°45' E 153°14'0 0.1
2017-Dec-09 09:22S 26°45' E 153°14'48 5.2
2017-Dec-09 00:04S 27°27' E 153°41'110.3
2017-Dec-09 00:00S 27°27' E 153°41'610.1
2017-Dec-08 23:26S 27°33' E 153°41'410.2
2017-Dec-08 23:00S 27°38' E 153°42'510.2
2017-Dec-08 22:30S 27°43' E 153°42'510.2
2017-Dec-08 22:00S 27°48' E 153°42'510.4
2017-Dec-08 21:30S 27°53' E 153°43'611.2
2017-Dec-08 21:00S 27°59' E 153°43'611.8
2017-Dec-08 20:30S 28°04' E 153°42'612.2
2017-Dec-08 20:01S 28°10' E 153°42'612.2
2017-Dec-08 19:30S 28°17' E 153°42'611.9
2017-Dec-08 19:00S 28°23' E 153°43'611.6
2017-Dec-08 18:30S 28°28' E 153°43'235 9.8
2017-Dec-07 18:24S 32°18' E 152°43'411.1
2017-Dec-07 18:00S 32°22' E 152°41'510.7
2017-Dec-07 17:30S 32°27' E 152°39'610.3
2017-Dec-07 16:56S 32°32' E 152°35'510.2
2017-Dec-07 16:29S 32°36' E 152°32'510.2
2017-Dec-07 16:00S 32°40' E 152°28'510.4
2017-Dec-07 15:30S 32°44' E 152°25'510.7
2017-Dec-07 15:00S 32°48' E 152°21'510.7
2017-Dec-07 14:30S 32°53' E 152°17'510.7
2017-Dec-07 14:00S 32°57' E 152°14'510.6
2017-Dec-07 13:30S 33°01' E 152°10'510.4
2017-Dec-07 13:01S 33°06' E 152°07'5 9.8
2017-Dec-07 12:30S 33°09' E 152°03'5 9.7
2017-Dec-07 12:00S 33°13' E 151°59'510.3
2017-Dec-07 11:30S 33°18' E 151°56'510.0
2017-Dec-07 11:00S 33°22' E 151°53'5 9.9
2017-Dec-07 10:30S 33°26' E 151°49'510.3
2017-Dec-07 10:01S 33°30' E 151°45'510.4
2017-Dec-07 09:30S 33°34' E 151°42'610.2
2017-Dec-07 08:55S 33°39' E 151°38'6 9.9
2017-Dec-07 08:20S 33°44' E 151°34'410.0
2017-Dec-07 07:55S 33°47' E 151°31'4 9.9
2017-Dec-07 07:30S 33°51' E 151°28'510.0
2017-Dec-07 07:00S 33°55' E 151°24'710.4
2017-Dec-07 06:18S 34°00' E 151°19'  
2017-Dec-04 01:45S 28°44' E 153°45'11 8.4
2017-Dec-04 00:27S 28°33' E 153°45'511.3
2017-Dec-03 23:59S 28°28' E 153°44'611.9
2017-Dec-03 23:30S 28°22' E 153°44'612.6
2017-Dec-03 23:00S 28°16' E 153°44'612.9
2017-Dec-03 22:30S 28°10' E 153°43'612.5
2017-Dec-03 22:00S 28°03' E 153°43'612.2
2017-Dec-03 21:30S 27°57' E 153°42'611.9
2017-Dec-03 21:00S 27°51' E 153°42'611.7
2017-Dec-03 20:30S 27°46' E 153°42'611.6
2017-Dec-03 19:59S 27°40' E 153°41'1712.4
2017-Dec-03 18:36S 27°22' E 153°40'613.0
2017-Dec-03 18:10S 27°17' E 153°39'213.3
2017-Dec-03 18:00S 27°15' E 153°39'813.5
2017-Dec-03 17:25S 27°07' E 153°38'613.2
2017-Dec-03 16:56S 27°01' E 153°37'512.3
2017-Dec-03 16:30S 26°56' E 153°33'612.1
2017-Dec-03 15:58S 26°53' E 153°27'1011.8
2017-Dec-03 15:09S 26°47' E 153°18'511.2
2017-Dec-03 14:43S 26°45' E 153°14'4 5.2
2017-Dec-03 13:53S 26°48' E 153°11'4 9.9
2017-Dec-03 13:27S 26°52' E 153°10'511.5
2017-Dec-03 13:00S 26°57' E 153°12'611.7
2017-Dec-03 12:30S 27°02' E 153°15'510.5
2017-Dec-03 12:00S 27°06' E 153°19'5 9.5
2017-Dec-03 11:30S 27°10' E 153°20'510.1
2017-Dec-03 11:00S 27°15' E 153°17'2 4.5
2017-Dec-03 10:30S 27°17' E 153°17'0 0.1
2017-Dec-03 09:48S 27°17' E 153°17'0 0.2
2017-Dec-03 09:30S 27°17' E 153°17'0 0.1
2017-Dec-03 09:00S 27°17' E 153°17'0 0.0
2017-Dec-03 08:24S 27°17' E 153°17'0 0.0
2017-Dec-03 07:59S 27°17' E 153°17'0 0.0
2017-Dec-03 07:30S 27°17' E 153°17'0 0.0
2017-Dec-03 06:46S 27°17' E 153°17'0 0.0
2017-Dec-03 06:28S 27°17' E 153°17'0 0.0
2017-Dec-03 05:57S 27°17' E 153°17'0 0.0
2017-Dec-03 05:30S 27°17' E 153°17'0 0.0
2017-Dec-03 04:57S 27°17' E 153°17'0 0.1
2017-Dec-03 04:29S 27°17' E 153°17'0 0.2
2017-Dec-03 04:00S 27°17' E 153°17'0 0.1
2017-Dec-03 03:30S 27°17' E 153°17'0 0.0
2017-Dec-03 03:00S 27°17' E 153°17'0 0.0
2017-Dec-03 02:30S 27°17' E 153°17'0 0.0
2017-Dec-03 02:00S 27°17' E 153°17'0 0.0
2017-Dec-03 01:30S 27°17' E 153°17'0 0.0
2017-Dec-03 01:00S 27°17' E 153°17'0 0.0
2017-Dec-03 00:30S 27°17' E 153°17'0 0.1
2017-Dec-03 00:00S 27°17' E 153°17'0 0.1
2017-Dec-02 23:29S 27°17' E 153°17'0 0.0
2017-Dec-02 23:00S 27°17' E 153°17'0 0.0
2017-Dec-02 22:30S 27°17' E 153°17'0 0.0
2017-Dec-02 22:00S 27°17' E 153°17'0 0.0
2017-Dec-02 21:30S 27°17' E 153°17'3 5.5
2017-Dec-02 21:00S 27°18' E 153°14'510.2
2017-Dec-02 20:30S 27°22' E 153°10'4 0.1
2017-Dec-01 19:42S 27°25' E 153°08'1 6.0
2017-Dec-01 19:30S 27°24' E 153°09'4 8.9
2017-Dec-01 19:00S 27°20' E 153°11'4 8.6
2017-Dec-01 18:30S 27°18' E 153°15'0 0.4
2017-Dec-01 18:00S 27°18' E 153°15'0 0.0
2017-Dec-01 17:27S 27°18' E 153°15'0 0.0
2017-Dec-01 17:00S 27°18' E 153°15'0 0.0
2017-Dec-01 16:30S 27°18' E 153°15'0 0.0
2017-Dec-01 16:00S 27°18' E 153°15'0 0.0
2017-Dec-01 15:30S 27°18' E 153°15'0 0.0
2017-Dec-01 15:00S 27°18' E 153°15'0 0.0
2017-Dec-01 14:30S 27°18' E 153°15'0 0.0
2017-Dec-01 14:00S 27°18' E 153°15'0 0.0
2017-Dec-01 13:30S 27°18' E 153°15'0 0.0
2017-Dec-01 13:00S 27°18' E 153°15'0 0.0
2017-Dec-01 12:30S 27°18' E 153°15'0 0.0
2017-Dec-01 12:00S 27°18' E 153°15'0 0.0
2017-Dec-01 11:30S 27°18' E 153°15'0 0.1
2017-Dec-01 11:00S 27°18' E 153°15'0 0.0
2017-Dec-01 10:30S 27°18' E 153°15'0 0.0
2017-Dec-01 10:00S 27°18' E 153°15'0 0.0
2017-Dec-01 09:30S 27°18' E 153°15'0 0.0
2017-Dec-01 09:00S 27°18' E 153°15'0 0.0
2017-Dec-01 08:30S 27°18' E 153°15'0 0.0
2017-Dec-01 08:00S 27°18' E 153°15'0 0.0
2017-Dec-01 07:30S 27°18' E 153°15'0 0.0
2017-Dec-01 07:00S 27°18' E 153°15'0 0.0
2017-Dec-01 06:27S 27°18' E 153°15'0 0.0
2017-Dec-01 05:54S 27°18' E 153°15'0 0.0
2017-Dec-01 05:30S 27°18' E 153°15'0 0.0
2017-Dec-01 05:00S 27°18' E 153°15'0 0.0
2017-Dec-01 04:30S 27°18' E 153°15'0 0.0
2017-Dec-01 04:00S 27°18' E 153°15'0 0.0
2017-Dec-01 03:30S 27°18' E 153°15'0 0.0
2017-Dec-01 03:00S 27°18' E 153°15'0 0.0
2017-Dec-01 02:27S 27°18' E 153°15'0 0.0
2017-Dec-01 01:24S 27°18' E 153°15'0 0.0
2017-Dec-01 00:51S 27°18' E 153°15'0 0.0
2017-Nov-30 22:57S 27°18' E 153°15'0 0.0
2017-Nov-30 22:30S 27°18' E 153°15'0 0.0
2017-Nov-30 22:00S 27°18' E 153°15'0 0.0
2017-Nov-30 21:27S 27°18' E 153°15'0 0.0
2017-Nov-30 21:00S 27°18' E 153°15'0 0.0
2017-Nov-30 20:27S 27°18' E 153°15'0 0.0
2017-Nov-30 20:00S 27°18' E 153°15'0 0.0
2017-Nov-30 19:30S 27°18' E 153°15'0 0.0
2017-Nov-30 19:00S 27°18' E 153°15'  
Track history (hours):
 
Tides and Currents Weather Stations Pressure Air Temp Water Temp Dewpoint Dewpoint Depression Visibility Wind Speed Wind Dir Waves Ship Positions

Gas Defiance

Last reported at 2017-Dec-10 18:57 UTC. Time now 2017-Dec-11 04:27 UTC.
Position S 27°25' E 153°08'.

Length 100 m; draft 6 m.

MMSI: 538003218.

Date/timePositionNaut miles runAvg speedWind from/ knotsBaromVisibWave heightAir tempDewpointWater temp
2017-Dec-10 18:57S 27°25' E 153°08'3 6.3
2017-Dec-10 18:30S 27°23' E 153°10'4 8.7
2017-Dec-10 18:00S 27°19' E 153°12'3 6.3
2017-Dec-10 17:30S 27°17' E 153°15'0 0.1
2017-Dec-10 17:00S 27°17' E 153°15'0 0.0
2017-Dec-10 16:30S 27°17' E 153°15'0 0.1
2017-Dec-10 16:00S 27°17' E 153°15'0 0.0
2017-Dec-10 15:30S 27°17' E 153°15'0 0.0
2017-Dec-10 15:00S 27°17' E 153°15'0 0.0
2017-Dec-10 14:30S 27°17' E 153°15'0 0.0
2017-Dec-10 14:00S 27°17' E 153°15'0 0.0
2017-Dec-10 13:30S 27°17' E 153°15'0 0.0
2017-Dec-10 13:00S 27°17' E 153°15'0 0.0
2017-Dec-10 12:30S 27°17' E 153°15'0 0.0
2017-Dec-10 12:00S 27°17' E 153°15'0 0.0
2017-Dec-10 11:30S 27°17' E 153°15'0 0.0
2017-Dec-10 11:00S 27°17' E 153°15'0 0.0
2017-Dec-10 10:30S 27°17' E 153°15'0 0.0
2017-Dec-10 10:00S 27°17' E 153°15'0 0.0
2017-Dec-10 09:30S 27°17' E 153°15'0 0.3
2017-Dec-10 09:00S 27°17' E 153°15'1 2.2
2017-Dec-10 08:29S 27°17' E 153°17'0 0.0
2017-Dec-10 07:59S 27°17' E 153°17'0 0.0
2017-Dec-10 07:29S 27°17' E 153°17'0 0.0
2017-Dec-10 06:59S 27°17' E 153°17'0 0.1
2017-Dec-10 06:29S 27°17' E 153°17'0 0.1
2017-Dec-10 05:59S 27°17' E 153°17'0 0.0
2017-Dec-10 05:29S 27°17' E 153°17'0 0.0
2017-Dec-10 04:59S 27°17' E 153°17'0 0.0
2017-Dec-10 04:29S 27°17' E 153°17'0 0.0
2017-Dec-10 03:59S 27°17' E 153°17'0 0.0
2017-Dec-10 03:26S 27°17' E 153°17'0 0.0
2017-Dec-10 02:53S 27°17' E 153°17'0 0.0
2017-Dec-10 02:29S 27°17' E 153°17'0 0.0
2017-Dec-10 01:56S 27°17' E 153°17'0 0.0
2017-Dec-10 01:29S 27°17' E 153°17'0 0.0
2017-Dec-10 00:59S 27°17' E 153°17'0 0.0
2017-Dec-10 00:29S 27°17' E 153°17'0 0.0
2017-Dec-09 23:59S 27°17' E 153°17'0 0.1
2017-Dec-09 23:26S 27°17' E 153°17'0 0.1
2017-Dec-09 22:59S 27°17' E 153°17'0 0.1
2017-Dec-09 22:29S 27°17' E 153°17'0 0.0
2017-Dec-09 21:59S 27°17' E 153°17'0 0.0
2017-Dec-09 21:29S 27°17' E 153°17'0 0.1
2017-Dec-09 21:00S 27°17' E 153°17'1 1.3
2017-Dec-09 20:30S 27°16' E 153°17'4 8.8
2017-Dec-09 20:00S 27°13' E 153°20'510.0
2017-Dec-09 19:30S 27°08' E 153°21'510.0
2017-Dec-09 19:00S 27°04' E 153°18'5 9.5
2017-Dec-09 18:30S 27°01' E 153°14'510.6
2017-Dec-09 18:00S 26°56' E 153°12'611.0
2017-Dec-09 17:30S 26°51' E 153°09'7 0.9
2017-Dec-09 09:40S 26°45' E 153°14'0 0.1
2017-Dec-09 09:22S 26°45' E 153°14'48 5.2
2017-Dec-09 00:04S 27°27' E 153°41'110.3
2017-Dec-09 00:00S 27°27' E 153°41'610.1
2017-Dec-08 23:26S 27°33' E 153°41'410.2
2017-Dec-08 23:00S 27°38' E 153°42'510.2
2017-Dec-08 22:30S 27°43' E 153°42'510.2
2017-Dec-08 22:00S 27°48' E 153°42'510.4
2017-Dec-08 21:30S 27°53' E 153°43'611.2
2017-Dec-08 21:00S 27°59' E 153°43'611.8
2017-Dec-08 20:30S 28°04' E 153°42'612.2
2017-Dec-08 20:01S 28°10' E 153°42'612.2
2017-Dec-08 19:30S 28°17' E 153°42'611.9
2017-Dec-08 19:00S 28°23' E 153°43'611.6
2017-Dec-08 18:30S 28°28' E 153°43'235 9.8
2017-Dec-07 18:24S 32°18' E 152°43'411.1
2017-Dec-07 18:00S 32°22' E 152°41'510.7
2017-Dec-07 17:30S 32°27' E 152°39'610.3
2017-Dec-07 16:56S 32°32' E 152°35'510.2
2017-Dec-07 16:29S 32°36' E 152°32'510.2
2017-Dec-07 16:00S 32°40' E 152°28'510.4
2017-Dec-07 15:30S 32°44' E 152°25'510.7
2017-Dec-07 15:00S 32°48' E 152°21'510.7
2017-Dec-07 14:30S 32°53' E 152°17'510.7
2017-Dec-07 14:00S 32°57' E 152°14'510.6
2017-Dec-07 13:30S 33°01' E 152°10'510.4
2017-Dec-07 13:01S 33°06' E 152°07'5 9.8
2017-Dec-07 12:30S 33°09' E 152°03'5 9.7
2017-Dec-07 12:00S 33°13' E 151°59'510.3
2017-Dec-07 11:30S 33°18' E 151°56'510.0
2017-Dec-07 11:00S 33°22' E 151°53'5 9.9
2017-Dec-07 10:30S 33°26' E 151°49'510.3
2017-Dec-07 10:01S 33°30' E 151°45'510.4
2017-Dec-07 09:30S 33°34' E 151°42'610.2
2017-Dec-07 08:55S 33°39' E 151°38'6 9.9
2017-Dec-07 08:20S 33°44' E 151°34'410.0
2017-Dec-07 07:55S 33°47' E 151°31'4 9.9
2017-Dec-07 07:30S 33°51' E 151°28'510.0
2017-Dec-07 07:00S 33°55' E 151°24'710.4
2017-Dec-07 06:18S 34°00' E 151°19'  
2017-Dec-04 01:45S 28°44' E 153°45'11 8.4
2017-Dec-04 00:27S 28°33' E 153°45'511.3
2017-Dec-03 23:59S 28°28' E 153°44'611.9
2017-Dec-03 23:30S 28°22' E 153°44'612.6
2017-Dec-03 23:00S 28°16' E 153°44'612.9
2017-Dec-03 22:30S 28°10' E 153°43'612.5
2017-Dec-03 22:00S 28°03' E 153°43'612.2
2017-Dec-03 21:30S 27°57' E 153°42'611.9
2017-Dec-03 21:00S 27°51' E 153°42'611.7
2017-Dec-03 20:30S 27°46' E 153°42'611.6
2017-Dec-03 19:59S 27°40' E 153°41'1712.4
2017-Dec-03 18:36S 27°22' E 153°40'613.0
2017-Dec-03 18:10S 27°17' E 153°39'213.3
2017-Dec-03 18:00S 27°15' E 153°39'813.5
2017-Dec-03 17:25S 27°07' E 153°38'613.2
2017-Dec-03 16:56S 27°01' E 153°37'512.3
2017-Dec-03 16:30S 26°56' E 153°33'612.1
2017-Dec-03 15:58S 26°53' E 153°27'1011.8
2017-Dec-03 15:09S 26°47' E 153°18'511.2
2017-Dec-03 14:43S 26°45' E 153°14'4 5.2
2017-Dec-03 13:53S 26°48' E 153°11'4 9.9
2017-Dec-03 13:27S 26°52' E 153°10'511.5
2017-Dec-03 13:00S 26°57' E 153°12'611.7
2017-Dec-03 12:30S 27°02' E 153°15'510.5
2017-Dec-03 12:00S 27°06' E 153°19'5 9.5
2017-Dec-03 11:30S 27°10' E 153°20'510.1
2017-Dec-03 11:00S 27°15' E 153°17'2 4.5
2017-Dec-03 10:30S 27°17' E 153°17'0 0.1
2017-Dec-03 09:48S 27°17' E 153°17'0 0.2
2017-Dec-03 09:30S 27°17' E 153°17'0 0.1
2017-Dec-03 09:00S 27°17' E 153°17'0 0.0
2017-Dec-03 08:24S 27°17' E 153°17'0 0.0
2017-Dec-03 07:59S 27°17' E 153°17'0 0.0
2017-Dec-03 07:30S 27°17' E 153°17'0 0.0
2017-Dec-03 06:46S 27°17' E 153°17'0 0.0
2017-Dec-03 06:28S 27°17' E 153°17'0 0.0
2017-Dec-03 05:57S 27°17' E 153°17'0 0.0
2017-Dec-03 05:30S 27°17' E 153°17'0 0.0
2017-Dec-03 04:57S 27°17' E 153°17'0 0.1
2017-Dec-03 04:29S 27°17' E 153°17'0 0.2
2017-Dec-03 04:00S 27°17' E 153°17'0 0.1
2017-Dec-03 03:30S 27°17' E 153°17'0 0.0
2017-Dec-03 03:00S 27°17' E 153°17'0 0.0
2017-Dec-03 02:30S 27°17' E 153°17'0 0.0
2017-Dec-03 02:00S 27°17' E 153°17'0 0.0
2017-Dec-03 01:30S 27°17' E 153°17'0 0.0
2017-Dec-03 01:00S 27°17' E 153°17'0 0.0
2017-Dec-03 00:30S 27°17' E 153°17'0 0.1
2017-Dec-03 00:00S 27°17' E 153°17'0 0.1
2017-Dec-02 23:29S 27°17' E 153°17'0 0.0
2017-Dec-02 23:00S 27°17' E 153°17'0 0.0
2017-Dec-02 22:30S 27°17' E 153°17'0 0.0
2017-Dec-02 22:00S 27°17' E 153°17'0 0.0
2017-Dec-02 21:30S 27°17' E 153°17'3 5.5
2017-Dec-02 21:00S 27°18' E 153°14'510.2
2017-Dec-02 20:30S 27°22' E 153°10'4 0.1
2017-Dec-01 19:42S 27°25' E 153°08'1 6.0
2017-Dec-01 19:30S 27°24' E 153°09'4 8.9
2017-Dec-01 19:00S 27°20' E 153°11'4 8.6
2017-Dec-01 18:30S 27°18' E 153°15'0 0.4
2017-Dec-01 18:00S 27°18' E 153°15'0 0.0
2017-Dec-01 17:27S 27°18' E 153°15'0 0.0
2017-Dec-01 17:00S 27°18' E 153°15'0 0.0
2017-Dec-01 16:30S 27°18' E 153°15'0 0.0
2017-Dec-01 16:00S 27°18' E 153°15'0 0.0
2017-Dec-01 15:30S 27°18' E 153°15'0 0.0
2017-Dec-01 15:00S 27°18' E 153°15'0 0.0
2017-Dec-01 14:30S 27°18' E 153°15'0 0.0
2017-Dec-01 14:00S 27°18' E 153°15'0 0.0
2017-Dec-01 13:30S 27°18' E 153°15'0 0.0
2017-Dec-01 13:00S 27°18' E 153°15'0 0.0
2017-Dec-01 12:30S 27°18' E 153°15'0 0.0
2017-Dec-01 12:00S 27°18' E 153°15'0 0.0
2017-Dec-01 11:30S 27°18' E 153°15'0 0.1
2017-Dec-01 11:00S 27°18' E 153°15'0 0.0
2017-Dec-01 10:30S 27°18' E 153°15'0 0.0
2017-Dec-01 10:00S 27°18' E 153°15'0 0.0
2017-Dec-01 09:30S 27°18' E 153°15'0 0.0
2017-Dec-01 09:00S 27°18' E 153°15'0 0.0
2017-Dec-01 08:30S 27°18' E 153°15'0 0.0
2017-Dec-01 08:00S 27°18' E 153°15'0 0.0
2017-Dec-01 07:30S 27°18' E 153°15'0 0.0
2017-Dec-01 07:00S 27°18' E 153°15'0 0.0
2017-Dec-01 06:27S 27°18' E 153°15'0 0.0
2017-Dec-01 05:54S 27°18' E 153°15'0 0.0
2017-Dec-01 05:30S 27°18' E 153°15'0 0.0
2017-Dec-01 05:00S 27°18' E 153°15'0 0.0
2017-Dec-01 04:30S 27°18' E 153°15'0 0.0
2017-Dec-01 04:00S 27°18' E 153°15'0 0.0
2017-Dec-01 03:30S 27°18' E 153°15'0 0.0
2017-Dec-01 03:00S 27°18' E 153°15'0 0.0
2017-Dec-01 02:27S 27°18' E 153°15'0 0.0
2017-Dec-01 01:24S 27°18' E 153°15'0 0.0
2017-Dec-01 00:51S 27°18' E 153°15'0 0.0
2017-Nov-30 22:57S 27°18' E 153°15'0 0.0
2017-Nov-30 22:30S 27°18' E 153°15'0 0.0
2017-Nov-30 22:00S 27°18' E 153°15'0 0.0
2017-Nov-30 21:27S 27°18' E 153°15'0 0.0
2017-Nov-30 21:00S 27°18' E 153°15'0 0.0
2017-Nov-30 20:27S 27°18' E 153°15'0 0.0
2017-Nov-30 20:00S 27°18' E 153°15'0 0.0
2017-Nov-30 19:30S 27°18' E 153°15'0 0.0
2017-Nov-30 19:00S 27°18' E 153°15'  

Dump ship's entire track history